createdAt,value
2023-05-19T00:01:16.958Z,9.10
2023-05-19T00:04:20.187Z,9.60
2023-05-19T00:07:30.613Z,9.95
2023-05-19T00:10:33.918Z,9.60
2023-05-19T00:13:37.256Z,10.10
2023-05-19T00:16:40.363Z,10.35
2023-05-19T00:19:45.317Z,10.32
2023-05-19T00:22:48.884Z,10.95
2023-05-19T00:25:52.455Z,11.33
2023-05-19T00:28:55.425Z,11.02
2023-05-19T00:31:58.282Z,11.48
2023-05-19T00:35:01.643Z,11.32
2023-05-19T00:38:04.463Z,11.65
2023-05-19T00:41:07.512Z,12.07
2023-05-19T00:44:10.336Z,11.65
2023-05-19T00:47:13.758Z,12.57
2023-05-19T00:50:16.679Z,12.70
2023-05-19T00:53:19.722Z,12.18
2023-05-19T00:56:23.237Z,12.00
2023-05-19T00:59:26.368Z,12.25
2023-05-19T01:02:29.959Z,11.73
2023-05-19T01:05:33.434Z,11.23
2023-05-19T01:08:39.022Z,12.98
2023-05-19T01:11:41.792Z,11.83
2023-05-19T01:14:45.261Z,11.25
2023-05-19T01:18:01.964Z,11.75
2023-05-19T01:21:17.234Z,11.32
2023-05-19T01:24:24.947Z,11.32
2023-05-19T01:27:56.188Z,11.10
2023-05-19T01:31:00.469Z,11.10
2023-05-19T01:34:04.961Z,11.75
2023-05-19T01:37:09.024Z,11.20
2023-05-19T01:40:12.321Z,11.18
2023-05-19T01:43:24.350Z,11.60
2023-05-19T01:46:27.215Z,11.07
2023-05-19T01:49:30.139Z,10.95
2023-05-19T01:52:33.924Z,11.70
2023-05-19T01:55:49.841Z,11.75
2023-05-19T01:59:03.610Z,11.07
2023-05-19T02:02:26.896Z,11.10
2023-05-19T02:06:12.495Z,11.15
2023-05-19T02:09:27.401Z,11.43
2023-05-19T02:12:36.296Z,11.20
2023-05-19T02:15:44.955Z,11.63
2023-05-19T02:18:48.463Z,12.82
2023-05-19T02:21:52.365Z,11.88
2023-05-19T02:24:57.918Z,12.20
2023-05-19T02:28:01.127Z,11.63
2023-05-19T02:31:08.916Z,12.07
2023-05-19T02:34:11.801Z,12.95
2023-05-19T02:37:15.506Z,12.90
2023-05-19T02:40:19.816Z,12.88
2023-05-19T02:43:22.681Z,13.23
2023-05-19T02:46:25.677Z,13.57
2023-05-19T02:49:31.110Z,14.52
2023-05-19T02:52:34.054Z,13.73
2023-05-19T02:55:37.511Z,13.45
2023-05-19T02:58:43.312Z,13.85
2023-05-19T03:01:47.794Z,13.47
2023-05-19T03:04:51.157Z,12.23
2023-05-19T03:07:53.962Z,13.27
2023-05-19T03:10:57.376Z,13.88
2023-05-19T03:14:00.157Z,13.10
2023-05-19T03:17:04.541Z,13.40
2023-05-19T03:20:08.223Z,12.15
2023-05-19T03:23:13.095Z,13.05
2023-05-19T03:26:15.993Z,13.65
2023-05-19T03:29:19.123Z,12.80
2023-05-19T03:32:23.379Z,13.00
2023-05-19T03:35:26.253Z,12.45
2023-05-19T03:38:29.178Z,13.10
2023-05-19T03:41:34.196Z,12.80
2023-05-19T03:44:38.304Z,12.70
2023-05-19T03:47:41.487Z,12.37
2023-05-19T03:51:04.524Z,11.43
2023-05-19T03:54:07.538Z,12.43
2023-05-19T03:57:11.394Z,11.80
2023-05-19T04:00:14.967Z,12.60
2023-05-19T04:03:19.112Z,12.00
2023-05-19T04:06:22.249Z,12.27
2023-05-19T04:09:26.580Z,12.70
2023-05-19T04:12:30.942Z,11.65
2023-05-19T04:15:34.104Z,11.48
2023-05-19T04:18:36.938Z,11.00
2023-05-19T04:21:40.640Z,12.00
2023-05-19T04:24:43.486Z,12.32
2023-05-19T04:27:48.362Z,11.60
2023-05-19T04:30:52.778Z,11.90
2023-05-19T04:33:55.714Z,12.20
2023-05-19T04:36:59.327Z,12.05
2023-05-19T04:40:02.470Z,11.68
2023-05-19T04:43:07.490Z,12.45
2023-05-19T04:46:13.739Z,13.07
2023-05-19T04:49:19.382Z,12.60
2023-05-19T04:52:22.350Z,12.80
2023-05-19T04:55:26.548Z,13.75
2023-05-19T04:58:30.309Z,12.95
2023-05-19T05:01:34.013Z,13.38
2023-05-19T05:04:42.593Z,13.00
2023-05-19T05:07:46.124Z,12.35
2023-05-19T05:10:53.061Z,12.32
2023-05-19T05:13:58.459Z,12.93
2023-05-19T05:17:04.503Z,12.95
2023-05-19T05:20:08.454Z,12.77
2023-05-19T05:23:15.401Z,12.60
2023-05-19T05:26:24.134Z,12.00
2023-05-19T05:29:32.526Z,11.38
2023-05-19T05:32:36.700Z,12.23
2023-05-19T05:35:44.608Z,10.63
2023-05-19T05:38:50.401Z,9.68
2023-05-19T05:41:54.110Z,10.00
2023-05-19T05:44:57.222Z,9.13
2023-05-19T05:48:00.684Z,9.70
2023-05-19T05:51:07.404Z,8.80
2023-05-19T05:54:15.267Z,8.18
2023-05-19T05:57:21.911Z,7.97
2023-05-19T06:00:28.130Z,7.38
2023-05-19T06:04:39.302Z,7.32
2023-05-19T06:07:54.122Z,6.70
2023-05-19T06:11:01.264Z,7.25
2023-05-19T06:14:06.121Z,7.43
2023-05-19T06:17:44.492Z,7.45
2023-05-19T06:20:48.942Z,7.38
2023-05-19T06:23:52.637Z,7.50
2023-05-19T06:31:39.610Z,7.38
2023-05-19T06:34:57.470Z,6.50
2023-05-19T06:38:02.784Z,5.88
2023-05-19T06:41:09.198Z,5.40
2023-05-19T06:44:12.293Z,9.27
2023-05-19T06:47:15.836Z,6.32
2023-05-19T06:50:20.723Z,6.63
2023-05-19T06:53:25.348Z,7.00
2023-05-19T06:56:29.484Z,6.40
2023-05-19T07:03:12.378Z,6.43
2023-05-19T07:06:17.074Z,5.40
2023-05-19T07:09:22.264Z,5.70
2023-05-19T07:12:26.870Z,5.30
2023-05-19T07:15:30.036Z,5.20
2023-05-19T07:18:32.939Z,4.70
2023-05-19T07:21:36.450Z,5.15
2023-05-19T07:24:39.426Z,5.20
2023-05-19T07:27:42.312Z,4.63
2023-05-19T07:30:46.893Z,4.22
2023-05-19T07:33:54.285Z,4.30
2023-05-19T07:36:57.756Z,4.80
2023-05-19T07:40:00.665Z,4.90
2023-05-19T07:43:03.570Z,4.30
2023-05-19T07:46:07.424Z,4.68
2023-05-19T07:49:10.293Z,4.97
2023-05-19T07:52:13.150Z,4.88
2023-05-19T07:55:19.588Z,5.57
2023-05-19T07:58:22.662Z,5.40
2023-05-19T08:01:26.381Z,4.70
2023-05-19T08:04:29.288Z,5.10
2023-05-19T08:07:39.403Z,4.20
2023-05-19T08:10:42.448Z,4.47
2023-05-19T08:13:47.899Z,4.40
2023-05-19T08:16:51.017Z,4.40
2023-05-19T08:20:02.238Z,4.22
2023-05-19T08:23:11.302Z,3.60
2023-05-19T08:26:14.162Z,4.05
2023-05-19T08:29:17.026Z,3.50
2023-05-19T08:32:19.969Z,3.05
2023-05-19T08:35:22.905Z,3.60
2023-05-19T08:38:26.649Z,3.40
2023-05-19T08:41:29.571Z,3.30
2023-05-19T08:44:32.476Z,3.27
2023-05-19T08:47:36.221Z,3.13
2023-05-19T08:50:42.196Z,2.63
2023-05-19T08:53:50.672Z,2.42
2023-05-19T08:56:55.305Z,2.33
2023-05-19T09:00:00.682Z,2.40
2023-05-19T09:06:15.594Z,2.25
2023-05-19T09:09:20.316Z,2.40
2023-05-19T09:12:25.349Z,2.85
2023-05-19T09:15:39.374Z,2.27
2023-05-19T09:18:56.677Z,2.60
2023-05-19T09:22:05.420Z,2.88
2023-05-19T09:25:22.813Z,2.47
2023-05-19T09:28:29.747Z,2.72
2023-05-19T09:31:36.179Z,3.10
2023-05-19T09:34:43.058Z,3.00
2023-05-19T09:37:46.748Z,3.03
2023-05-19T09:41:02.678Z,2.22
2023-05-19T09:44:07.534Z,2.58
2023-05-19T09:47:14.301Z,2.27
2023-05-19T09:50:17.213Z,2.10
2023-05-19T09:53:22.046Z,2.40
2023-05-19T09:56:25.704Z,2.33
2023-05-19T09:59:38.045Z,2.17
2023-05-19T10:02:45.787Z,2.80
2023-05-19T10:05:49.931Z,2.63
2023-05-19T10:09:26.437Z,2.67
2023-05-19T10:12:31.431Z,2.90
2023-05-19T10:15:57.204Z,2.58
2023-05-19T10:19:03.074Z,2.70
2023-05-19T10:22:10.277Z,2.50
2023-05-19T10:25:18.713Z,2.80
2023-05-19T10:28:26.802Z,2.40
2023-05-19T10:31:32.017Z,2.33
2023-05-19T10:34:50.597Z,2.10
2023-05-19T10:38:17.833Z,2.35
2023-05-19T10:41:31.861Z,2.80
2023-05-19T10:44:47.556Z,2.50
2023-05-19T10:47:51.811Z,2.00
2023-05-19T10:50:56.449Z,2.20
2023-05-19T10:54:03.086Z,2.22
2023-05-19T10:57:07.192Z,2.53
2023-05-19T11:00:28.601Z,2.22
2023-05-19T11:03:44.777Z,2.72
2023-05-19T11:06:51.897Z,2.73
2023-05-19T11:12:01.673Z,2.67
2023-05-19T11:18:38.848Z,2.60
2023-05-19T11:21:52.911Z,2.50
2023-05-19T11:24:56.089Z,2.57
2023-05-19T11:27:59.423Z,2.55
2023-05-19T11:31:03.810Z,2.30
2023-05-19T11:34:10.453Z,2.40
2023-05-19T11:37:13.213Z,2.90
2023-05-19T11:40:16.141Z,2.50
2023-05-19T11:43:19.048Z,2.20
2023-05-19T11:46:22.382Z,2.70
2023-05-19T11:49:29.774Z,2.38
2023-05-19T11:52:32.678Z,2.40
2023-05-19T11:55:35.478Z,2.87
2023-05-19T11:58:38.365Z,2.40
2023-05-19T12:01:41.148Z,2.40
2023-05-19T12:04:44.265Z,2.58
2023-05-19T12:07:49.744Z,2.85
2023-05-19T12:10:52.718Z,2.40
2023-05-19T12:14:01.796Z,2.67
2023-05-19T12:17:16.106Z,2.45
2023-05-19T12:20:21.051Z,2.30
2023-05-19T12:23:24.966Z,2.45
2023-05-19T12:26:27.892Z,2.63
2023-05-19T12:29:31.991Z,2.80
2023-05-19T12:32:37.938Z,2.30
2023-05-19T12:35:42.676Z,2.10
2023-05-19T12:38:47.850Z,3.00
2023-05-19T12:41:50.887Z,2.40
2023-05-19T12:44:54.861Z,2.80
2023-05-19T12:47:57.891Z,2.78
2023-05-19T12:51:00.726Z,2.70
2023-05-19T12:54:06.835Z,2.78
2023-05-19T12:57:12.785Z,2.87
2023-05-19T13:00:36.839Z,2.80
2023-05-19T13:05:00.162Z,2.92
2023-05-19T13:08:27.980Z,3.17
2023-05-19T13:11:30.897Z,2.70
2023-05-19T13:14:33.667Z,2.70
2023-05-19T13:17:37.025Z,2.80
2023-05-19T13:20:42.112Z,2.72
2023-05-19T13:23:47.837Z,2.63
2023-05-19T13:26:50.722Z,2.72
2023-05-19T13:29:53.512Z,2.80
2023-05-19T13:32:56.427Z,3.20
2023-05-19T13:36:02.560Z,2.88
2023-05-19T13:39:05.451Z,2.75
2023-05-19T13:46:15.865Z,3.03
2023-05-19T13:49:18.807Z,2.67
2023-05-19T13:52:23.876Z,2.45
2023-05-19T13:55:27.597Z,2.95
2023-05-19T13:58:32.987Z,3.13
2023-05-19T14:01:35.911Z,3.10
2023-05-19T14:04:39.605Z,3.00
2023-05-19T14:07:42.768Z,3.08
2023-05-19T14:10:48.863Z,3.15
2023-05-19T14:13:53.049Z,2.80
2023-05-19T14:16:56.245Z,2.83
2023-05-19T14:20:00.738Z,3.15
2023-05-19T14:23:03.618Z,3.28
2023-05-19T14:26:06.456Z,3.25
2023-05-19T14:29:09.255Z,3.25
2023-05-19T14:32:12.087Z,3.40
2023-05-19T14:35:14.843Z,3.17
2023-05-19T14:38:17.738Z,3.30
2023-05-19T14:41:21.615Z,3.17
2023-05-19T14:44:24.383Z,3.15
2023-05-19T14:47:27.477Z,3.10
2023-05-19T14:50:30.761Z,3.03
2023-05-19T14:53:33.752Z,2.90
2023-05-19T14:56:36.509Z,2.97
2023-05-19T14:59:39.598Z,2.70
2023-05-19T15:02:42.652Z,2.70
2023-05-19T15:05:45.990Z,2.65
2023-05-19T15:08:49.175Z,3.00
2023-05-19T15:11:51.962Z,2.92
2023-05-19T15:14:54.756Z,3.80
2023-05-19T15:17:57.671Z,3.53
2023-05-19T15:21:00.504Z,3.30
2023-05-19T15:24:03.325Z,3.10
2023-05-19T15:27:06.307Z,3.17
2023-05-19T15:30:09.335Z,3.33
2023-05-19T15:33:13.092Z,3.20
2023-05-19T15:36:16.808Z,2.92
2023-05-19T15:39:19.826Z,3.05
2023-05-19T15:42:22.680Z,3.30
2023-05-19T15:45:25.492Z,3.40
2023-05-19T15:48:29.176Z,3.40
2023-05-19T15:51:32.096Z,3.10
2023-05-19T15:54:34.975Z,3.58
2023-05-19T15:57:37.880Z,2.90
2023-05-19T16:00:40.738Z,3.42
2023-05-19T16:03:44.096Z,3.77
2023-05-19T16:06:47.158Z,3.80
2023-05-19T16:09:50.261Z,4.10
2023-05-19T16:12:53.047Z,4.10
2023-05-19T16:15:56.186Z,3.80
2023-05-19T16:18:59.235Z,4.07
2023-05-19T16:22:02.094Z,4.40
2023-05-19T16:25:05.526Z,5.45
2023-05-19T16:28:08.401Z,4.05
2023-05-19T16:31:11.372Z,4.25
2023-05-19T16:34:17.023Z,3.60
2023-05-19T16:37:19.814Z,4.05
2023-05-19T16:40:22.623Z,3.92
2023-05-19T16:43:26.443Z,4.25
2023-05-19T16:46:31.160Z,4.60
2023-05-19T16:49:34.441Z,4.07
2023-05-19T16:52:37.285Z,3.75
2023-05-19T16:55:40.130Z,3.72
2023-05-19T16:58:42.881Z,4.35
2023-05-19T17:01:45.955Z,4.10
2023-05-19T17:04:48.779Z,3.90
2023-05-19T17:07:51.811Z,4.40
2023-05-19T17:10:54.699Z,4.32
2023-05-19T17:13:57.684Z,4.60
2023-05-19T17:17:00.717Z,4.43
2023-05-19T17:20:04.357Z,4.40
2023-05-19T17:23:08.424Z,5.38
2023-05-19T17:26:11.185Z,6.20
2023-05-19T17:29:14.046Z,5.60
2023-05-19T17:32:17.464Z,5.35
2023-05-19T17:35:20.364Z,4.50
2023-05-19T17:38:23.243Z,4.55
2023-05-19T17:41:26.404Z,4.80
2023-05-19T17:44:29.189Z,4.57
2023-05-19T17:47:32.102Z,4.75
2023-05-19T17:50:35.156Z,4.53
2023-05-19T17:53:38.688Z,4.60
2023-05-19T17:56:44.565Z,4.55
2023-05-19T17:59:47.624Z,5.00
2023-05-19T18:02:51.065Z,6.07
2023-05-19T18:05:54.073Z,6.30
2023-05-19T18:08:59.374Z,7.15
2023-05-19T18:12:02.515Z,6.53
2023-05-19T18:15:06.297Z,5.93
2023-05-19T18:18:10.762Z,5.82
2023-05-19T18:21:17.995Z,6.00
2023-05-19T18:24:20.807Z,5.72
2023-05-19T18:27:23.626Z,5.95
2023-05-19T18:30:26.490Z,5.90
2023-05-19T18:33:31.058Z,6.35
2023-05-19T18:36:35.879Z,6.00
2023-05-19T18:39:38.706Z,6.47
2023-05-19T18:42:41.625Z,6.70
2023-05-19T18:45:48.154Z,6.40
2023-05-19T18:48:51.046Z,6.70
2023-05-19T18:51:54.192Z,6.30
2023-05-19T18:54:57.075Z,6.72
2023-05-19T18:57:59.988Z,6.72
2023-05-19T19:01:02.937Z,7.78
2023-05-19T19:04:05.829Z,7.28
2023-05-19T19:07:08.633Z,7.20
2023-05-19T19:10:11.894Z,7.35
2023-05-19T19:13:14.661Z,7.10
2023-05-19T19:16:17.548Z,7.30
2023-05-19T19:19:20.856Z,8.30
2023-05-19T19:22:23.684Z,8.03
2023-05-19T19:25:26.408Z,7.32
2023-05-19T19:28:29.364Z,7.60
2023-05-19T19:31:33.501Z,7.35
2023-05-19T19:34:36.453Z,7.45
2023-05-19T19:37:39.203Z,7.47
2023-05-19T19:40:42.094Z,7.47
2023-05-19T19:43:44.840Z,6.88
2023-05-19T19:46:49.197Z,6.88
2023-05-19T19:49:52.106Z,7.28
2023-05-19T19:52:54.902Z,7.37
2023-05-19T19:55:58.338Z,7.35
2023-05-19T19:59:01.679Z,7.10
2023-05-19T20:02:48.348Z,7.40
2023-05-19T20:06:26.190Z,7.85
2023-05-19T20:09:30.920Z,7.57
2023-05-19T20:12:34.792Z,8.27
2023-05-19T20:15:41.669Z,8.00
2023-05-19T20:18:44.680Z,8.13
2023-05-19T20:21:47.762Z,8.00
2023-05-19T20:24:50.640Z,8.47
2023-05-19T20:27:53.374Z,8.68
2023-05-19T20:30:56.306Z,8.63
2023-05-19T20:34:00.777Z,8.07
2023-05-19T20:37:04.472Z,8.30
2023-05-19T20:40:08.517Z,9.40
2023-05-19T20:43:11.438Z,9.27
2023-05-19T20:46:14.402Z,10.82
2023-05-19T20:49:17.788Z,9.40
2023-05-19T20:52:20.656Z,9.23
2023-05-19T20:55:23.489Z,9.93
2023-05-19T20:58:30.288Z,8.90
2023-05-19T21:01:33.278Z,8.73
2023-05-19T21:04:37.427Z,8.80
2023-05-19T21:07:40.251Z,8.27
2023-05-19T21:10:43.139Z,8.07
2023-05-19T21:13:45.897Z,8.65
2023-05-19T21:16:49.779Z,9.20
2023-05-19T21:19:58.299Z,9.45
2023-05-19T21:23:01.158Z,9.20
2023-05-19T21:26:06.680Z,9.00
2023-05-19T21:29:09.998Z,8.73
2023-05-19T21:32:12.887Z,9.65
2023-05-19T21:35:16.047Z,9.40
2023-05-19T21:38:23.882Z,9.30
2023-05-19T21:41:27.205Z,9.77
2023-05-19T21:44:31.863Z,9.90
2023-05-19T21:47:34.739Z,10.18
2023-05-19T21:50:38.501Z,10.23
2023-05-19T21:53:41.396Z,10.23
2023-05-19T21:56:44.172Z,10.73
2023-05-19T21:59:47.124Z,9.98
2023-05-19T22:02:49.938Z,9.80
2023-05-19T22:05:55.335Z,10.77
2023-05-19T22:09:01.368Z,10.65
2023-05-19T22:12:04.540Z,10.90
2023-05-19T22:15:07.892Z,11.18
2023-05-19T22:18:11.899Z,11.30
2023-05-19T22:21:14.804Z,11.07
2023-05-19T22:24:18.686Z,10.63
2023-05-19T22:27:21.626Z,10.80
2023-05-19T22:30:24.498Z,11.60
2023-05-19T22:33:27.493Z,10.45
2023-05-19T22:36:31.380Z,10.73
2023-05-19T22:39:34.318Z,10.18
2023-05-19T22:42:37.233Z,9.97
2023-05-19T22:45:40.057Z,10.23
2023-05-19T22:48:42.829Z,9.73
2023-05-19T22:51:45.687Z,10.77
2023-05-19T22:54:48.468Z,10.02
2023-05-19T22:57:51.364Z,9.60
2023-05-19T23:00:54.089Z,10.15
2023-05-19T23:03:56.916Z,10.05
2023-05-19T23:07:00.203Z,10.35
2023-05-19T23:10:04.488Z,10.60
2023-05-19T23:13:08.466Z,11.07
2023-05-19T23:16:11.526Z,11.07
2023-05-19T23:19:14.510Z,11.38
2023-05-19T23:22:17.457Z,11.38
2023-05-19T23:25:20.291Z,11.90
2023-05-19T23:28:23.025Z,12.37
2023-05-19T23:31:25.984Z,11.20
2023-05-19T23:34:29.110Z,12.07
2023-05-19T23:37:31.926Z,12.98
2023-05-19T23:40:34.772Z,13.07
2023-05-19T23:43:38.003Z,12.97
2023-05-19T23:46:41.275Z,12.48
2023-05-19T23:49:44.226Z,13.82
2023-05-19T23:52:48.628Z,14.68
2023-05-19T23:55:51.755Z,14.40
2023-05-19T23:58:54.557Z,14.53
